createdAt,value
2018-08-30T00:00:48.259Z,19.16
2018-08-30T00:02:19.631Z,19.25
2018-08-30T00:03:51.204Z,19.33
2018-08-30T00:05:23.318Z,19.32
2018-08-30T00:06:54.649Z,19.44
2018-08-30T00:08:26.461Z,19.46
2018-08-30T00:09:57.492Z,19.47
2018-08-30T00:11:29.606Z,19.44
2018-08-30T00:13:00.739Z,19.31
2018-08-30T00:14:32.208Z,19.55
2018-08-30T00:16:03.780Z,19.36
2018-08-30T00:17:35.352Z,19.40
2018-08-30T00:19:07.175Z,19.68
2018-08-30T00:20:38.496Z,19.55
2018-08-30T00:22:10.070Z,19.56
2018-08-30T00:23:41.944Z,19.36
2018-08-30T00:25:13.313Z,19.11
2018-08-30T00:26:44.784Z,18.76
2018-08-30T00:28:16.897Z,18.35
2018-08-30T00:29:47.933Z,18.21
2018-08-30T00:31:19.600Z,18.32
2018-08-30T00:32:51.613Z,18.08
2018-08-30T00:34:22.645Z,18.15
2018-08-30T00:35:54.216Z,18.15
2018-08-30T00:37:26.138Z,18.48
2018-08-30T00:38:57.360Z,18.36
2018-08-30T00:40:28.931Z,18.47
2018-08-30T00:42:00.503Z,18.44
2018-08-30T00:43:32.175Z,18.51
2018-08-30T00:45:03.648Z,18.48
2018-08-30T00:46:35.218Z,18.26
2018-08-30T00:48:06.790Z,18.05
2018-08-30T00:49:38.462Z,17.84
2018-08-30T00:51:09.933Z,17.82
2018-08-30T00:52:42.249Z,17.95
2018-08-30T00:54:13.075Z,18.50
2018-08-30T00:55:44.998Z,18.57
2018-08-30T00:57:16.221Z,18.69
2018-08-30T00:58:47.790Z,18.78
2018-08-30T01:00:19.361Z,18.90
2018-08-30T01:01:51.033Z,18.92
2018-08-30T01:03:22.511Z,19.11
2018-08-30T01:04:54.080Z,19.32
2018-08-30T01:06:25.647Z,19.31
2018-08-30T01:07:57.219Z,18.98
2018-08-30T01:09:28.790Z,18.98
2018-08-30T01:11:00.362Z,19.00
2018-08-30T01:12:31.933Z,19.14
2018-08-30T01:14:03.705Z,19.11
2018-08-30T01:15:35.076Z,19.28
2018-08-30T01:17:06.647Z,19.29
2018-08-30T01:18:38.239Z,19.44
2018-08-30T01:20:09.891Z,19.29
2018-08-30T01:21:41.666Z,19.40
2018-08-30T01:23:12.933Z,19.46
2018-08-30T01:24:44.507Z,19.58
2018-08-30T01:26:16.177Z,19.59
2018-08-30T01:27:47.648Z,19.50
2018-08-30T01:29:19.220Z,19.46
2018-08-30T01:30:50.791Z,19.32
2018-08-30T01:32:22.663Z,18.95
2018-08-30T01:33:53.938Z,18.76
2018-08-30T01:35:25.506Z,18.66
2018-08-30T01:36:57.078Z,18.72
2018-08-30T01:38:28.950Z,18.88
2018-08-30T01:40:00.223Z,18.84
2018-08-30T01:41:31.799Z,18.98
2018-08-30T01:43:03.372Z,19.04
2018-08-30T01:44:35.037Z,18.80
2018-08-30T01:46:06.510Z,18.27
2018-08-30T01:47:38.081Z,18.44
2018-08-30T01:49:09.652Z,18.50
2018-08-30T01:50:41.475Z,18.41
2018-08-30T01:52:12.794Z,18.51
2018-08-30T01:53:44.367Z,18.36
2018-08-30T01:55:15.937Z,18.85
2018-08-30T01:56:47.612Z,18.91
2018-08-30T01:58:19.080Z,18.87
2018-08-30T01:59:50.651Z,18.82
2018-08-30T02:01:22.223Z,18.73
2018-08-30T02:02:53.895Z,18.67
2018-08-30T02:04:25.386Z,18.52
2018-08-30T02:05:56.937Z,18.73
2018-08-30T02:07:28.509Z,18.55
2018-08-30T02:09:00.482Z,18.39
2018-08-30T02:10:31.653Z,18.45
2018-08-30T02:12:03.224Z,18.03
2018-08-30T02:13:34.795Z,18.20
2018-08-30T02:15:06.467Z,18.23
2018-08-30T02:16:37.939Z,17.78
2018-08-30T02:18:09.512Z,17.55
2018-08-30T02:19:41.081Z,17.23
2018-08-30T02:21:12.655Z,17.30
2018-08-30T02:22:44.223Z,17.62
2018-08-30T02:24:15.796Z,17.58
2018-08-30T02:25:47.366Z,17.44
2018-08-30T02:27:19.189Z,17.18
2018-08-30T02:28:50.509Z,17.04
2018-08-30T02:30:22.096Z,17.33
2018-08-30T02:31:53.652Z,17.55
2018-08-30T02:33:25.325Z,17.30
2018-08-30T02:34:56.795Z,17.28
2018-08-30T02:36:28.365Z,16.98
2018-08-30T02:37:59.937Z,16.68
2018-08-30T02:39:31.809Z,16.58
2018-08-30T02:41:03.079Z,16.35
2018-08-30T02:42:34.649Z,16.27
2018-08-30T02:44:06.233Z,16.02
2018-08-30T02:45:37.992Z,15.82
2018-08-30T02:47:09.363Z,15.82
2018-08-30T02:48:40.934Z,15.86
2018-08-30T02:50:12.516Z,15.84
2018-08-30T02:51:44.180Z,15.93
2018-08-30T02:53:15.647Z,16.20
2018-08-30T02:54:47.221Z,16.24
2018-08-30T02:56:18.789Z,16.34
2018-08-30T02:57:50.659Z,16.38
2018-08-30T02:59:21.959Z,16.38
2018-08-30T03:00:53.501Z,16.46
2018-08-30T03:02:25.071Z,16.39
2018-08-30T03:05:28.463Z,16.20
2018-08-30T03:06:59.784Z,16.04
2018-08-30T03:08:31.355Z,15.94
2018-08-30T03:10:02.924Z,15.89
2018-08-30T03:11:34.840Z,15.89
2018-08-30T03:13:06.065Z,15.94
2018-08-30T03:14:37.639Z,16.42
2018-08-30T03:16:09.208Z,17.04
2018-08-30T03:17:41.385Z,17.19
2018-08-30T03:19:12.348Z,17.19
2018-08-30T03:20:44.470Z,16.63
2018-08-30T03:22:15.488Z,16.86
2018-08-30T03:23:47.761Z,17.06
2018-08-30T03:25:18.629Z,17.04
2018-08-30T03:26:50.236Z,17.36
2018-08-30T03:28:21.810Z,17.49
2018-08-30T03:29:53.439Z,17.55
2018-08-30T03:31:24.946Z,17.79
2018-08-30T03:32:56.495Z,17.28
2018-08-30T03:34:28.050Z,17.71
2018-08-30T03:35:59.721Z,17.62
2018-08-30T03:37:31.196Z,18.03
2018-08-30T03:39:02.792Z,17.68
2018-08-30T03:40:34.332Z,17.52
2018-08-30T03:42:06.053Z,17.14
2018-08-30T03:43:37.473Z,17.37
2018-08-30T03:45:09.044Z,17.59
2018-08-30T03:46:40.613Z,17.82
2018-08-30T03:48:12.285Z,18.03
2018-08-30T03:49:43.754Z,18.00
2018-08-30T03:51:15.325Z,17.90
2018-08-30T03:52:46.897Z,18.10
2018-08-30T03:54:18.466Z,18.03
2018-08-30T03:55:50.036Z,18.05
2018-08-30T03:57:21.606Z,17.92
2018-08-30T04:00:24.898Z,18.10
2018-08-30T04:01:56.318Z,17.71
2018-08-30T04:03:27.892Z,18.07
2018-08-30T04:06:31.130Z,18.14
2018-08-30T04:08:02.600Z,18.17
2018-08-30T04:09:34.171Z,18.03
2018-08-30T04:11:05.741Z,18.21
2018-08-30T04:12:37.415Z,18.45
2018-08-30T04:14:08.882Z,18.55
2018-08-30T04:15:40.655Z,18.51
2018-08-30T04:17:12.023Z,18.58
2018-08-30T04:18:43.845Z,18.48
2018-08-30T04:20:15.164Z,18.47
2018-08-30T04:21:46.735Z,18.48
2018-08-30T04:23:18.306Z,18.32
2018-08-30T04:24:49.876Z,18.44
2018-08-30T04:26:21.447Z,18.35
2018-08-30T04:27:53.018Z,18.50
2018-08-30T04:29:24.589Z,18.35
2018-08-30T04:30:56.159Z,18.27
2018-08-30T04:32:27.730Z,18.30
2018-08-30T04:33:59.300Z,18.25
2018-08-30T04:35:30.875Z,18.33
2018-08-30T04:37:02.592Z,18.27
2018-08-30T04:38:34.015Z,18.18
2018-08-30T04:40:05.585Z,18.32
2018-08-30T04:41:37.154Z,18.39
2018-08-30T04:43:08.725Z,18.26
2018-08-30T04:44:40.296Z,18.02
2018-08-30T04:46:11.866Z,17.96
2018-08-30T04:47:43.437Z,18.07
2018-08-30T04:49:15.110Z,17.99
2018-08-30T04:50:46.579Z,18.12
2018-08-30T04:52:18.154Z,18.21
2018-08-30T04:53:49.719Z,18.30
2018-08-30T04:55:21.440Z,18.14
2018-08-30T04:56:53.165Z,18.08
2018-08-30T04:58:24.431Z,18.05
2018-08-30T04:59:56.002Z,18.02
2018-08-30T05:01:27.775Z,18.15
2018-08-30T05:02:59.144Z,18.30
2018-08-30T05:04:30.714Z,18.21
2018-08-30T05:06:02.285Z,18.23
2018-08-30T05:07:33.956Z,18.21
2018-08-30T05:09:05.427Z,18.08
2018-08-30T05:10:36.997Z,17.99
2018-08-30T05:12:08.567Z,18.02
2018-08-30T05:13:40.540Z,18.07
2018-08-30T05:15:11.708Z,18.02
2018-08-30T05:16:43.282Z,17.95
2018-08-30T05:18:14.849Z,17.82
2018-08-30T05:19:46.523Z,18.02
2018-08-30T05:21:17.990Z,18.10
2018-08-30T05:22:49.561Z,17.99
2018-08-30T05:24:21.132Z,17.99
2018-08-30T05:25:52.702Z,17.97
2018-08-30T05:27:24.274Z,17.87
2018-08-30T05:28:55.843Z,17.95
2018-08-30T05:30:27.414Z,17.87
2018-08-30T05:31:59.084Z,17.78
2018-08-30T05:33:30.558Z,17.95
2018-08-30T05:35:02.126Z,17.78
2018-08-30T05:36:33.696Z,17.77
2018-08-30T05:38:05.367Z,17.78
2018-08-30T05:39:36.836Z,17.77
2018-08-30T05:41:08.407Z,18.00
2018-08-30T05:42:39.977Z,18.02
2018-08-30T05:44:11.547Z,17.89
2018-08-30T05:45:43.118Z,17.78
2018-08-30T05:47:14.688Z,17.66
2018-08-30T05:48:46.259Z,17.72
2018-08-30T05:50:17.979Z,17.70
2018-08-30T05:51:49.399Z,17.62
2018-08-30T05:53:20.970Z,17.71
2018-08-30T05:54:52.544Z,17.64
2018-08-30T05:56:24.117Z,17.62
2018-08-30T05:57:55.680Z,17.55
2018-08-30T05:59:27.251Z,17.54
2018-08-30T06:00:58.821Z,17.54
2018-08-30T06:02:30.420Z,17.51
2018-08-30T06:04:01.961Z,17.56
2018-08-30T06:05:33.537Z,17.48
2018-08-30T06:07:05.103Z,17.40
2018-08-30T06:08:36.924Z,17.34
2018-08-30T06:10:08.243Z,17.44
2018-08-30T06:11:39.813Z,17.51
2018-08-30T06:13:11.424Z,17.49
2018-08-30T06:14:43.254Z,17.58
2018-08-30T06:16:14.527Z,17.33
2018-08-30T06:17:46.094Z,17.33
2018-08-30T06:19:17.664Z,17.26
2018-08-30T06:20:49.334Z,17.23
2018-08-30T06:22:20.805Z,17.19
2018-08-30T06:23:52.374Z,17.22
2018-08-30T06:25:23.945Z,17.26
2018-08-30T06:26:55.727Z,17.19
2018-08-30T06:28:27.085Z,17.21
2018-08-30T06:29:58.654Z,17.14
2018-08-30T06:31:30.226Z,17.06
2018-08-30T06:33:02.336Z,17.01
2018-08-30T06:34:33.369Z,17.03
2018-08-30T06:36:04.935Z,17.04
2018-08-30T06:37:36.505Z,17.04
2018-08-30T06:39:08.176Z,17.04
2018-08-30T06:40:39.645Z,17.03
2018-08-30T06:42:11.217Z,17.08
2018-08-30T06:43:42.785Z,17.01
2018-08-30T06:45:14.756Z,16.94
2018-08-30T06:46:45.925Z,16.86
2018-08-30T06:48:17.500Z,17.01
2018-08-30T06:49:49.065Z,16.85
2018-08-30T06:51:20.735Z,16.85
2018-08-30T06:52:52.221Z,17.01
2018-08-30T06:54:23.775Z,16.89
2018-08-30T06:55:55.345Z,17.03
2018-08-30T06:57:26.915Z,16.94
2018-08-30T06:58:58.485Z,16.79
2018-08-30T07:00:30.055Z,16.83
2018-08-30T07:02:01.624Z,16.94
2018-08-30T07:03:33.348Z,16.82
2018-08-30T07:05:04.764Z,16.75
2018-08-30T07:06:36.334Z,16.85
2018-08-30T07:08:07.954Z,16.85
2018-08-30T07:09:39.579Z,16.73
2018-08-30T07:11:11.044Z,16.81
2018-08-30T07:12:42.613Z,16.71
2018-08-30T07:14:14.183Z,16.75
2018-08-30T07:15:46.055Z,16.58
2018-08-30T07:17:17.323Z,16.75
2018-08-30T07:18:48.893Z,16.68
2018-08-30T07:20:20.463Z,16.75
2018-08-30T07:21:52.232Z,16.58
2018-08-30T07:23:23.602Z,16.63
2018-08-30T07:24:55.176Z,16.61
2018-08-30T07:26:26.742Z,16.64
2018-08-30T07:27:58.412Z,16.53
2018-08-30T07:29:29.882Z,16.56
2018-08-30T07:31:01.452Z,16.48
2018-08-30T07:32:33.022Z,16.63
2018-08-30T07:34:04.673Z,16.50
2018-08-30T07:35:36.162Z,16.43
2018-08-30T07:37:07.733Z,16.46
2018-08-30T07:38:39.301Z,16.41
2018-08-30T07:40:11.075Z,16.35
2018-08-30T07:41:42.441Z,16.41
2018-08-30T07:43:14.011Z,16.38
2018-08-30T07:44:45.581Z,16.45
2018-08-30T07:46:17.451Z,16.46
2018-08-30T07:47:48.720Z,16.53
2018-08-30T07:49:20.293Z,16.52
2018-08-30T07:52:23.534Z,16.53
2018-08-30T07:53:55.001Z,16.49
2018-08-30T07:55:26.569Z,16.52
2018-08-30T07:56:58.139Z,16.45
2018-08-30T07:58:29.809Z,16.43
2018-08-30T08:00:01.401Z,16.45
2018-08-30T08:01:32.848Z,16.41
2018-08-30T08:03:04.417Z,16.43
2018-08-30T08:04:35.987Z,16.42
2018-08-30T08:06:07.597Z,16.39
2018-08-30T08:07:39.127Z,16.50
2018-08-30T08:09:10.696Z,16.53
2018-08-30T08:10:42.367Z,16.38
2018-08-30T08:12:13.835Z,16.45
2018-08-30T08:13:45.405Z,16.42
2018-08-30T08:15:16.975Z,16.34
2018-08-30T08:16:48.948Z,16.34
2018-08-30T08:18:20.114Z,16.24
2018-08-30T08:19:51.684Z,16.21
2018-08-30T08:21:23.253Z,16.04
2018-08-30T08:22:54.924Z,16.02
2018-08-30T08:24:26.878Z,15.93
2018-08-30T08:29:02.284Z,15.87
2018-08-30T08:30:32.675Z,15.96
2018-08-30T08:32:04.729Z,15.86
2018-08-30T08:33:36.297Z,15.89
2018-08-30T08:35:08.060Z,15.86
2018-08-30T08:36:39.552Z,15.92
2018-08-30T08:38:11.357Z,16.24
2018-08-30T08:41:14.855Z,16.05
2018-08-30T08:42:45.827Z,15.94
2018-08-30T08:44:17.000Z,15.93
2018-08-30T08:45:48.861Z,15.83
2018-08-30T08:47:20.647Z,15.83
2018-08-30T08:50:26.598Z,15.87
2018-08-30T08:51:55.800Z,15.87
2018-08-30T08:53:27.242Z,15.87
2018-08-30T08:54:58.435Z,15.84
2018-08-30T08:56:30.212Z,16.09
2018-08-30T08:58:01.430Z,16.02
2018-08-30T08:59:32.973Z,16.12
2018-08-30T09:01:05.068Z,16.01
2018-08-30T09:02:36.919Z,15.97
2018-08-30T09:04:08.024Z,16.08
2018-08-30T09:05:39.577Z,15.94
2018-08-30T09:07:11.621Z,15.86
2018-08-30T09:08:42.724Z,15.78
2018-08-30T09:10:13.946Z,15.84
2018-08-30T09:11:45.968Z,15.80
2018-08-30T09:13:17.379Z,15.87
2018-08-30T09:14:48.190Z,15.93
2018-08-30T09:16:19.759Z,16.23
2018-08-30T09:17:51.637Z,16.25
2018-08-30T09:19:22.897Z,16.15
2018-08-30T09:22:26.037Z,16.07
2018-08-30T09:23:57.709Z,16.05
2018-08-30T09:25:29.175Z,16.12
2018-08-30T09:27:00.778Z,16.42
2018-08-30T09:28:32.313Z,16.38
2018-08-30T09:30:03.983Z,16.50
2018-08-30T09:31:35.453Z,16.60
2018-08-30T09:33:07.026Z,16.70
2018-08-30T09:34:38.591Z,16.82
2018-08-30T09:36:10.161Z,16.98
2018-08-30T09:37:41.731Z,17.08
2018-08-30T09:39:13.746Z,17.22
2018-08-30T09:40:45.827Z,17.33
2018-08-30T09:42:16.562Z,17.49
2018-08-30T09:43:48.046Z,17.49
2018-08-30T09:45:19.582Z,17.48
2018-08-30T09:46:51.659Z,17.71
2018-08-30T09:48:22.973Z,17.68
2018-08-30T09:52:57.846Z,18.15
2018-08-30T09:54:30.283Z,18.11
2018-08-30T09:57:33.102Z,18.14
2018-08-30T10:00:37.232Z,18.51
2018-08-30T10:02:06.866Z,18.18
2018-08-30T10:03:39.246Z,18.51
2018-08-30T10:06:42.290Z,18.55
2018-08-30T10:08:13.155Z,18.63
2018-08-30T10:09:45.999Z,18.73
2018-08-30T10:11:17.320Z,18.63
2018-08-30T10:12:48.711Z,19.00
2018-08-30T10:15:51.397Z,19.04
2018-08-30T10:17:22.592Z,19.19
2018-08-30T10:18:55.375Z,19.33
2018-08-30T10:20:26.044Z,19.76
2018-08-30T10:21:57.365Z,19.55
2018-08-30T10:23:29.118Z,19.32
2018-08-30T10:25:00.917Z,19.23
2018-08-30T10:28:04.197Z,19.56
2018-08-30T10:29:35.690Z,19.10
2018-08-30T10:31:07.192Z,19.48
2018-08-30T10:32:38.360Z,19.95
2018-08-30T10:34:09.907Z,20.01
2018-08-30T10:35:42.087Z,19.87
2018-08-30T10:37:13.952Z,19.99
2018-08-30T10:38:45.327Z,19.87
2018-08-30T10:40:16.208Z,19.87
2018-08-30T10:41:48.416Z,20.47
2018-08-30T10:43:20.063Z,20.38
2018-08-30T10:44:52.167Z,20.42
2018-08-30T10:46:23.316Z,20.41
2018-08-30T10:47:54.575Z,20.31
2018-08-30T10:49:26.507Z,20.03
2018-08-30T10:50:58.769Z,20.06
2018-08-30T10:52:29.641Z,20.17
2018-08-30T10:54:01.245Z,20.36
2018-08-30T10:55:33.376Z,20.11
2018-08-30T10:57:05.114Z,20.23
2018-08-30T10:58:37.286Z,20.57
2018-08-30T11:00:06.949Z,20.88
2018-08-30T11:01:39.744Z,20.41
2018-08-30T11:03:11.974Z,21.03
2018-08-30T11:04:42.766Z,21.01
2018-08-30T11:06:13.300Z,20.97
2018-08-30T11:07:47.283Z,20.95
2018-08-30T11:10:48.601Z,20.69
2018-08-30T11:12:21.575Z,20.57
2018-08-30T11:13:52.606Z,21.13
2018-08-30T11:15:24.618Z,21.34
2018-08-30T11:18:25.980Z,21.65
2018-08-30T11:19:58.091Z,21.50
2018-08-30T11:21:30.253Z,21.12
2018-08-30T11:23:01.760Z,21.07
2018-08-30T11:24:32.821Z,21.53
2018-08-30T11:26:04.949Z,21.04
2018-08-30T11:27:36.071Z,21.06
2018-08-30T11:29:07.232Z,21.74
2018-08-30T11:30:39.198Z,22.15
2018-08-30T11:32:11.131Z,20.97
2018-08-30T11:33:43.229Z,20.87
2018-08-30T11:35:13.863Z,21.50
2018-08-30T11:36:44.770Z,22.14
2018-08-30T11:38:17.687Z,22.28
2018-08-30T11:39:47.927Z,22.06
2018-08-30T11:41:19.582Z,22.07
2018-08-30T11:42:50.950Z,22.33
2018-08-30T11:44:22.869Z,22.60
2018-08-30T11:45:54.039Z,21.40
2018-08-30T11:47:25.941Z,21.29
2018-08-30T11:48:57.633Z,22.20
2018-08-30T11:50:32.009Z,22.20
2018-08-30T11:52:00.362Z,22.12
2018-08-30T11:53:33.266Z,23.12
2018-08-30T11:55:04.180Z,22.46
2018-08-30T11:56:36.054Z,22.58
2018-08-30T11:58:07.914Z,22.30
2018-08-30T11:59:40.429Z,22.30
2018-08-30T12:01:10.451Z,22.46
2018-08-30T12:02:42.911Z,22.37
2018-08-30T12:04:14.099Z,22.39
2018-08-30T12:05:45.285Z,22.35
2018-08-30T12:07:19.251Z,22.03
2018-08-30T12:08:48.988Z,22.35
2018-08-30T12:11:54.761Z,22.72
2018-08-30T12:14:55.647Z,23.95
2018-08-30T12:16:27.795Z,23.66
2018-08-30T12:17:58.215Z,23.27
2018-08-30T12:19:29.531Z,23.72
2018-08-30T12:21:02.241Z,24.09
2018-08-30T12:22:34.540Z,23.04
2018-08-30T12:24:05.436Z,23.40
2018-08-30T12:25:37.433Z,23.40
2018-08-30T12:27:08.549Z,22.94
2018-08-30T12:28:42.136Z,22.86
2018-08-30T12:30:13.265Z,23.17
2018-08-30T12:33:17.494Z,23.40
2018-08-30T12:34:45.756Z,23.72
2018-08-30T12:36:18.235Z,24.39
2018-08-30T12:39:24.115Z,24.81
2018-08-30T12:40:52.409Z,25.42
2018-08-30T12:43:55.802Z,25.20
2018-08-30T12:45:27.408Z,25.61
2018-08-30T12:47:00.167Z,25.33
2018-08-30T12:48:31.144Z,25.50
2018-08-30T12:50:01.953Z,25.20
2018-08-30T12:51:33.566Z,25.43
2018-08-30T12:54:37.592Z,24.03
2018-08-30T12:56:09.511Z,23.72
2018-08-30T12:57:40.251Z,24.35
2018-08-30T12:59:11.842Z,25.42
2018-08-30T13:00:47.421Z,25.23
2018-08-30T13:02:14.593Z,25.13
2018-08-30T13:05:17.480Z,24.62
2018-08-30T13:12:58.257Z,25.94
2018-08-30T13:14:26.645Z,26.02
2018-08-30T13:15:58.744Z,25.40
2018-08-30T13:17:30.453Z,25.00
2018-08-30T13:19:01.650Z,25.58
2018-08-30T13:20:34.243Z,25.09
2018-08-30T13:22:04.391Z,25.79
2018-08-30T13:23:36.911Z,25.91
2018-08-30T13:25:10.955Z,25.28
2018-08-30T13:26:40.481Z,25.58
2018-08-30T13:29:47.683Z,26.44
2018-08-30T13:31:15.688Z,26.48
2018-08-30T13:32:46.302Z,26.47
2018-08-30T13:34:18.392Z,26.44
2018-08-30T13:37:20.514Z,26.47
2018-08-30T13:45:01.541Z,26.50
2018-08-30T13:46:31.468Z,27.59
2018-08-30T13:48:01.955Z,27.28
2018-08-30T13:51:05.141Z,26.06
2018-08-30T13:52:37.080Z,27.02
2018-08-30T13:54:07.936Z,26.69
2018-08-30T13:55:40.085Z,26.88
2018-08-30T13:58:43.904Z,26.37
2018-08-30T14:03:17.337Z,27.62
2018-08-30T14:04:50.532Z,27.75
2018-08-30T14:06:20.662Z,27.70
2018-08-30T14:07:52.155Z,27.78
2018-08-30T14:09:25.015Z,27.50
2018-08-30T14:10:55.708Z,27.39
2018-08-30T14:12:27.044Z,27.96
2018-08-30T14:13:58.903Z,28.00
2018-08-30T14:15:31.246Z,27.74
2018-08-30T14:17:01.499Z,27.97
2018-08-30T14:18:33.159Z,27.81
2018-08-30T14:20:04.975Z,27.55
2018-08-30T14:21:36.822Z,27.54
2018-08-30T14:23:07.409Z,27.78
2018-08-30T14:24:39.367Z,27.77
2018-08-30T14:26:10.875Z,28.09
2018-08-30T14:27:42.378Z,28.19
2018-08-30T14:30:45.201Z,28.37
2018-08-30T14:33:49.117Z,28.30
2018-08-30T14:35:20.236Z,28.00
2018-08-30T14:36:52.232Z,27.77
2018-08-30T14:38:23.852Z,28.14
2018-08-30T14:41:27.071Z,28.73
2018-08-30T14:42:58.053Z,29.08
2018-08-30T14:44:29.733Z,29.46
2018-08-30T14:46:01.041Z,29.42
2018-08-30T14:47:33.018Z,29.80
2018-08-30T14:49:04.157Z,29.36
2018-08-30T14:50:36.535Z,29.68
2018-08-30T14:52:07.379Z,29.06
2018-08-30T14:53:39.103Z,29.28
2018-08-30T14:55:10.914Z,28.66
2018-08-30T14:56:43.428Z,28.59
2018-08-30T14:58:13.710Z,29.15
2018-08-30T14:59:47.227Z,29.55
2018-08-30T15:01:18.296Z,29.05
2018-08-30T15:02:48.722Z,28.74
2018-08-30T15:04:19.999Z,28.58
2018-08-30T15:05:51.748Z,29.00
2018-08-30T15:07:23.106Z,29.15
2018-08-30T15:08:55.114Z,28.90
2018-08-30T15:10:26.316Z,28.95
2018-08-30T15:11:57.959Z,28.04
2018-08-30T15:13:29.634Z,27.66
2018-08-30T15:15:02.085Z,28.56
2018-08-30T15:16:33.413Z,29.53
2018-08-30T15:18:05.147Z,30.07
2018-08-30T15:19:36.379Z,29.11
2018-08-30T15:21:07.883Z,28.93
2018-08-30T15:22:39.808Z,29.43
2018-08-30T15:24:11.324Z,29.51
2018-08-30T15:25:42.791Z,28.56
2018-08-30T15:27:14.439Z,29.16
2018-08-30T15:31:55.999Z,30.29
2018-08-30T15:36:37.175Z,29.97
2018-08-30T15:37:55.632Z,30.08
2018-08-30T15:39:27.237Z,30.16
2018-08-30T15:40:58.707Z,29.73
2018-08-30T15:42:30.187Z,30.08
2018-08-30T15:44:01.190Z,30.05
2018-08-30T15:45:32.777Z,28.55
2018-08-30T15:47:04.440Z,28.31
2018-08-30T15:48:36.139Z,29.42
2018-08-30T15:50:07.537Z,30.42
2018-08-30T15:51:39.378Z,30.37
2018-08-30T15:53:10.728Z,29.71
2018-08-30T15:54:42.513Z,29.95
2018-08-30T15:56:13.827Z,29.41
2018-08-30T15:57:45.413Z,29.79
2018-08-30T15:59:17.598Z,29.71
2018-08-30T16:02:20.471Z,29.46
2018-08-30T16:05:23.404Z,29.60
2018-08-30T16:06:54.938Z,29.85
2018-08-30T16:09:58.709Z,30.95
2018-08-30T16:11:30.197Z,30.47
2018-08-30T16:13:01.345Z,29.79
2018-08-30T16:14:33.066Z,30.00
2018-08-30T16:16:04.453Z,29.86
2018-08-30T16:17:36.239Z,30.70
2018-08-30T16:25:13.974Z,30.39
2018-08-30T16:26:45.570Z,30.19
2018-08-30T16:28:17.251Z,30.27
2018-08-30T16:29:49.387Z,30.58
2018-08-30T16:31:20.620Z,31.02
2018-08-30T16:32:52.114Z,30.45
2018-08-30T16:34:24.005Z,31.04
2018-08-30T16:35:55.389Z,31.41
2018-08-30T16:37:27.227Z,31.31
2018-08-30T16:38:58.261Z,31.39
2018-08-30T16:40:30.150Z,30.60
2018-08-30T16:42:01.639Z,30.57
2018-08-30T16:43:33.331Z,30.34
2018-08-30T16:45:04.616Z,30.99
2018-08-30T16:48:07.908Z,30.45
2018-08-30T16:51:10.962Z,29.98
2018-08-30T16:52:42.751Z,30.29
2018-08-30T16:55:45.973Z,30.57
2018-08-30T16:57:17.309Z,30.69
2018-08-30T16:58:49.125Z,30.55
2018-08-30T17:00:20.685Z,30.47
2018-08-30T17:01:52.170Z,31.53
2018-08-30T17:03:23.960Z,31.01
2018-08-30T17:04:55.851Z,30.70
2018-08-30T17:06:26.884Z,31.81
2018-08-30T17:09:30.616Z,31.06
2018-08-30T17:11:01.591Z,31.39
2018-08-30T17:12:33.483Z,31.36
2018-08-30T17:14:04.765Z,30.53
2018-08-30T17:15:36.553Z,30.04
2018-08-30T17:17:07.958Z,30.99
2018-08-30T17:20:11.113Z,30.35
2018-08-30T17:24:46.225Z,32.01
2018-08-30T17:26:18.017Z,31.57
2018-08-30T17:27:50.195Z,31.34
2018-08-30T17:29:20.646Z,31.06
2018-08-30T17:30:52.681Z,30.24
2018-08-30T17:32:24.155Z,30.64
2018-08-30T17:33:55.401Z,31.51
2018-08-30T17:35:27.089Z,31.35
2018-08-30T17:36:59.312Z,31.21
2018-08-30T17:38:30.384Z,30.62
2018-08-30T17:40:03.447Z,30.61
2018-08-30T17:41:34.167Z,31.38
2018-08-30T17:43:05.298Z,31.75
2018-08-30T17:44:36.549Z,29.92
2018-08-30T17:46:08.381Z,29.87
2018-08-30T17:47:39.662Z,29.42
2018-08-30T17:49:11.348Z,29.53
2018-08-30T17:50:42.873Z,30.32
2018-08-30T17:52:14.709Z,30.46
2018-08-30T17:55:17.998Z,30.43
2018-08-30T17:56:49.526Z,30.94
2018-08-30T17:58:21.130Z,32.21
2018-08-30T17:59:52.341Z,32.75
2018-08-30T18:01:24.372Z,31.35
2018-08-30T18:02:55.714Z,31.07
2018-08-30T18:04:27.400Z,31.36
2018-08-30T18:05:58.723Z,32.10
2018-08-30T18:09:02.594Z,30.95
2018-08-30T18:10:33.740Z,31.54
2018-08-30T18:12:05.023Z,31.57
2018-08-30T18:13:37.027Z,31.21
2018-08-30T18:15:08.294Z,31.34
2018-08-30T18:23:33.651Z,31.56
2018-08-30T18:25:04.927Z,31.36
2018-08-30T18:26:36.800Z,32.11
2018-08-30T18:28:08.425Z,32.57
2018-08-30T18:29:39.886Z,32.40
2018-08-30T18:31:11.571Z,31.38
2018-08-30T18:32:42.855Z,29.71
2018-08-30T18:34:14.445Z,29.37
2018-08-30T18:35:46.101Z,30.19
2018-08-30T18:38:49.609Z,30.65
2018-08-30T18:40:20.882Z,31.66
2018-08-30T18:41:52.911Z,32.55
2018-08-30T18:43:23.957Z,32.93
2018-08-30T18:44:55.777Z,32.07
2018-08-30T18:46:27.113Z,32.65
2018-08-30T18:47:59.103Z,32.23
2018-08-30T18:49:30.333Z,32.40
2018-08-30T18:51:03.087Z,32.10
2018-08-30T18:52:33.503Z,32.75
2018-08-30T18:54:05.587Z,32.44
2018-08-30T18:55:36.681Z,32.48
2018-08-30T18:57:08.307Z,31.88
2018-08-30T18:58:39.785Z,31.28
2018-08-30T19:01:43.016Z,29.58
2018-08-30T19:03:14.806Z,29.11
2018-08-30T19:04:46.122Z,28.88
2018-08-30T19:06:17.908Z,29.14
2018-08-30T19:09:22.022Z,30.42
2018-08-30T19:10:52.456Z,30.86
2018-08-30T19:12:24.880Z,30.70
2018-08-30T19:13:55.907Z,31.35
2018-08-30T19:15:27.306Z,31.25
2018-08-30T19:16:58.787Z,31.16
2018-08-30T19:18:30.369Z,31.31
2018-08-30T19:20:01.953Z,30.99
2018-08-30T19:23:05.570Z,30.82
2018-08-30T19:27:40.005Z,31.10
2018-08-30T19:29:11.549Z,31.19
2018-08-30T19:30:43.031Z,31.25
2018-08-30T19:33:47.142Z,31.16
2018-08-30T19:35:17.878Z,31.26
2018-08-30T19:38:22.098Z,30.37
2018-08-30T19:39:56.577Z,30.35
2018-08-30T19:41:24.663Z,30.76
2018-08-30T19:44:27.278Z,30.17
2018-08-30T19:45:58.854Z,30.53
2018-08-30T19:47:30.538Z,30.65
2018-08-30T19:49:02.220Z,30.42
2018-08-30T19:50:33.600Z,30.61
2018-08-30T19:52:05.182Z,30.11
2018-08-30T19:53:36.863Z,30.15
2018-08-30T19:55:08.344Z,30.64
2018-08-30T19:56:39.932Z,30.58
2018-08-30T19:58:11.507Z,30.15
2018-08-30T19:59:43.240Z,30.10
2018-08-30T20:01:14.671Z,29.97
2018-08-30T20:02:46.795Z,30.04
2018-08-30T20:04:17.834Z,30.46
2018-08-30T20:05:49.517Z,30.57
2018-08-30T20:07:20.995Z,30.54
2018-08-30T20:08:52.583Z,30.23
2018-08-30T20:10:24.376Z,30.42
2018-08-30T20:11:55.845Z,30.29
2018-08-30T20:13:27.323Z,30.31
2018-08-30T20:16:30.482Z,29.85
2018-08-30T20:18:02.263Z,29.78
2018-08-30T20:19:34.288Z,29.70
2018-08-30T20:21:05.808Z,29.55
2018-08-30T20:22:36.898Z,29.52
2018-08-30T20:24:08.689Z,28.93
2018-08-30T20:27:11.547Z,28.58
2018-08-30T20:28:43.329Z,28.62
2018-08-30T20:30:14.813Z,29.04
2018-08-30T20:31:46.287Z,28.83
2018-08-30T20:33:17.868Z,28.44
2018-08-30T20:34:49.446Z,27.85
2018-08-30T20:36:21.270Z,27.41
2018-08-30T20:37:52.809Z,27.13
2018-08-30T20:39:24.198Z,27.02
2018-08-30T20:40:56.308Z,26.91
2018-08-30T20:42:27.445Z,26.73
2018-08-30T20:43:58.926Z,26.72
2018-08-30T20:45:30.505Z,26.58
2018-08-30T20:47:02.100Z,26.44
2018-08-30T20:48:33.667Z,26.35
2018-08-30T20:50:05.240Z,26.20
2018-08-30T20:51:37.123Z,26.30
2018-08-30T20:53:08.399Z,26.23
2018-08-30T20:54:40.178Z,26.13
2018-08-30T20:56:11.555Z,25.97
2018-08-30T20:57:43.133Z,25.76
2018-08-30T20:59:14.727Z,25.57
2018-08-30T21:00:46.391Z,25.50
2018-08-30T21:02:17.868Z,25.33
2018-08-30T21:03:49.447Z,25.28
2018-08-30T21:05:21.033Z,25.15
2018-08-30T21:06:53.031Z,24.88
2018-08-30T21:08:24.181Z,24.60
2018-08-30T21:11:27.337Z,24.34
2018-08-30T21:12:59.115Z,24.25
2018-08-30T21:14:30.492Z,24.12
2018-08-30T21:16:02.070Z,23.91
2018-08-30T21:17:33.703Z,23.75
2018-08-30T21:19:05.679Z,23.68
2018-08-30T21:20:36.802Z,23.55
2018-08-30T21:22:08.379Z,23.33
2018-08-30T21:23:40.261Z,23.36
2018-08-30T21:25:11.633Z,23.23
2018-08-30T21:26:43.111Z,23.28
2018-08-30T21:28:14.693Z,23.07
2018-08-30T21:29:46.277Z,22.95
2018-08-30T21:31:18.042Z,22.80
2018-08-30T21:32:49.419Z,22.67
2018-08-30T21:34:21.000Z,22.47
2018-08-30T21:35:52.578Z,22.40
2018-08-30T21:37:24.248Z,22.40
2018-08-30T21:38:55.799Z,22.30